Home   Weather   Spain   Palencia   Past weeks
Flag for Spain

Past Weather in Palencia, Palencia, Spain — Yesterday and Last 2 Weeks

Currently: 46 °F. Passing clouds. (Weather station: Valladolid / Villanubla, Spain). See more current weather

Past Weather in Palencia — Graph

°F

Palencia Temperature Yesterday

Maximum temperature yesterday: 52 °F (at 3:30 pm)
Minimum temperature yesterday: 32 °F (at 3:30 am)
Average temperature yesterday: 39 °F

High & Low Weather Summary for the Past Weeks

 TemperatureHumidityPressure
High64 °F (Nov 12, 2:30 pm)100% (Nov 14, 8:00 am)30.42 "Hg (Nov 14, 8:00 am)
Low32 °F (Nov 19, 8:30 am)49% (Nov 13, 4:00 pm)29.71 "Hg (Nov 17, 7:17 am)
Average48 °F85%30.04 "Hg
* Reported Nov 12 12:00 pm — Nov 27 12:00 pm, Palencia. Weather by CustomWeather, © 2022

Note: Actual official high and low records may vary slightly from our data, if they occured in-between our weather recording intervals... More about our weather records

Palencia Weather History for the Previous 24 Hours

Scroll right to see more
 ConditionsComfort  
Time TempWeatherWind HumidityBarometerVisibility
12:00 pm
Sun, Nov 27
43 °FPassing clouds.5 mph81%30.24 "HgN/A
11:30 am39 °FPassing clouds.5 mph87%30.24 "HgN/A
11:00 am39 °FPassing clouds.6 mph87%30.24 "HgN/A
10:30 am39 °FPassing clouds.3 mph87%30.24 "HgN/A
10:00 am36 °FSunny.2 mph93%30.24 "Hg10 mi
9:30 am34 °FSunny.3 mph93%30.24 "Hg10 mi
9:00 am34 °FSunny.No wind93%30.24 "Hg10 mi
8:30 am34 °FSunny.5 mph87%30.24 "Hg10 mi
8:00 am34 °FClear.3 mph87%30.24 "Hg10 mi
7:30 am34 °FClear.3 mph87%30.24 "Hg10 mi
7:00 am36 °FPassing clouds.3 mph87%30.27 "HgN/A
6:30 am36 °FClear.6 mph93%30.27 "Hg10 mi
6:00 am34 °FChilly.1 mph100%30.27 "HgN/A
5:30 am34 °FFog.5 mph100%30.27 "Hg1 mi
5:00 am34 °FChilly.7 mph100%30.27 "Hg4 mi
4:30 am36 °FFog.5 mph93%30.27 "Hg3 mi
4:00 am34 °FChilly.6 mph100%30.30 "Hg4 mi
3:30 am36 °FClear.3 mph93%30.30 "Hg10 mi
3:00 am34 °FChilly.5 mph93%30.30 "HgN/A
2:30 am36 °FClear.6 mph93%30.30 "Hg10 mi
2:00 am37 °FClear.6 mph93%30.30 "Hg10 mi
12:30 am36 °FClear.3 mph93%30.33 "Hg10 mi
12:00 am36 °FClear.5 mph93%30.33 "Hg10 mi
11:00 pm
Sat, Nov 26
36 °FClear.5 mph93%30.33 "Hg10 mi
10:30 pm36 °FClear.5 mph93%30.33 "Hg10 mi
10:00 pm36 °FClear.6 mph93%30.33 "Hg10 mi
9:30 pm36 °FClear.7 mph93%30.36 "Hg10 mi
9:00 pm37 °FClear.3 mph87%30.36 "Hg10 mi
8:30 pm39 °FClear.1 mph81%30.36 "Hg10 mi
8:00 pm41 °FClear.5 mph87%30.36 "Hg10 mi
7:30 pm39 °FClear.1 mph87%30.36 "Hg10 mi
7:00 pm43 °FClear.1 mph81%30.36 "Hg10 mi
6:30 pm45 °FClear.5 mph76%30.36 "Hg10 mi
6:00 pm45 °FClear.3 mph76%30.36 "Hg10 mi
5:00 pm50 °FSunny.1 mph67%30.36 "Hg10 mi
4:30 pm52 °FSunny.No wind58%30.36 "Hg10 mi
4:00 pm52 °FSunny.2 mph58%30.36 "Hg10 mi
3:30 pm52 °FPassing clouds.3 mph54%30.39 "HgN/A
3:00 pm50 °FSunny.1 mph62%30.39 "Hg10 mi
2:00 pm50 °FSunny.2 mph58%30.39 "Hg10 mi
1:30 pm48 °FSunny.3 mph66%30.39 "Hg10 mi
1:00 pm48 °FSunny.2 mph66%30.42 "Hg10 mi
Weather by CustomWeather, © 2022

See weather overview